createdAt,value
2019-03-28T00:02:22.939Z,40.20
2019-03-28T00:04:53.353Z,36.67
2019-03-28T00:07:24.345Z,30.73
2019-03-28T00:09:55.634Z,37.10
2019-03-28T00:12:26.272Z,35.10
2019-03-28T00:14:56.826Z,37.63
2019-03-28T00:17:27.052Z,31.27
2019-03-28T00:19:57.311Z,43.07
2019-03-28T00:22:36.018Z,38.23
2019-03-28T00:25:08.940Z,39.07
2019-03-28T00:27:40.099Z,35.70
2019-03-28T00:30:10.559Z,37.43
2019-03-28T00:32:40.792Z,40.70
2019-03-28T00:35:11.078Z,37.93
2019-03-28T00:37:42.021Z,40.60
2019-03-28T00:40:12.466Z,36.73
2019-03-28T00:42:43.115Z,35.17
2019-03-28T00:45:13.511Z,37.93
2019-03-28T00:47:43.673Z,40.87
2019-03-28T00:50:14.924Z,40.20
2019-03-28T00:52:45.206Z,32.47
2019-03-28T00:55:16.355Z,39.10
2019-03-28T00:57:46.593Z,32.47
2019-03-28T01:00:18.283Z,42.93
2019-03-28T01:02:48.452Z,38.30
2019-03-28T01:05:18.543Z,38.20
2019-03-28T01:07:48.840Z,41.20
2019-03-28T01:10:18.830Z,34.77
2019-03-28T01:12:49.191Z,32.53
2019-03-28T01:15:19.230Z,43.47
2019-03-28T01:17:49.936Z,35.43
2019-03-28T01:20:19.942Z,33.63
2019-03-28T01:22:50.097Z,36.13
2019-03-28T01:25:20.954Z,39.13
2019-03-28T01:27:50.984Z,34.20
2019-03-28T01:30:22.565Z,38.10
2019-03-28T01:32:53.233Z,41.93
2019-03-28T01:35:23.285Z,38.07
2019-03-28T01:37:54.768Z,35.77
2019-03-28T01:40:26.162Z,39.30
2019-03-28T01:42:56.758Z,30.83
2019-03-28T01:45:27.200Z,37.87
2019-03-28T01:47:57.720Z,35.43
2019-03-28T01:50:27.710Z,42.47
2019-03-28T01:52:57.912Z,42.90
2019-03-28T01:55:28.143Z,38.30
2019-03-28T01:57:58.675Z,41.53
2019-03-28T02:00:28.676Z,37.73
2019-03-28T02:02:58.670Z,32.03
2019-03-28T02:05:31.459Z,35.03
2019-03-28T02:08:02.856Z,38.20
2019-03-28T02:10:34.360Z,36.77
2019-03-28T02:13:04.318Z,33.70
2019-03-28T02:15:34.954Z,38.53
2019-03-28T02:18:04.976Z,34.57
2019-03-28T02:20:36.180Z,33.87
2019-03-28T02:23:06.843Z,38.10
2019-03-28T02:25:36.870Z,36.23
2019-03-28T02:28:09.460Z,31.60
2019-03-28T02:30:40.247Z,40.50
2019-03-28T02:33:11.078Z,37.03
2019-03-28T02:35:41.324Z,32.53
2019-03-28T02:38:11.914Z,37.70
2019-03-28T02:40:42.708Z,33.47
2019-03-28T02:43:13.149Z,33.43
2019-03-28T02:45:44.208Z,39.33
2019-03-28T02:48:14.783Z,41.60
2019-03-28T02:50:44.855Z,36.30
2019-03-28T02:53:15.147Z,36.37
2019-03-28T02:55:45.399Z,33.30
2019-03-28T02:58:16.000Z,31.07
2019-03-28T03:00:46.383Z,32.97
2019-03-28T03:03:18.158Z,30.97
2019-03-28T03:05:48.547Z,27.80
2019-03-28T03:08:18.578Z,31.73
2019-03-28T03:10:48.538Z,32.63
2019-03-28T03:13:19.865Z,30.73
2019-03-28T03:15:50.373Z,30.13
2019-03-28T03:18:21.594Z,28.60
2019-03-28T03:20:52.756Z,31.23
2019-03-28T03:23:23.043Z,31.33
2019-03-28T03:25:52.960Z,36.57
2019-03-28T03:28:23.026Z,38.43
2019-03-28T03:30:53.282Z,36.47
2019-03-28T03:33:23.314Z,36.20
2019-03-28T03:35:53.343Z,30.70
2019-03-28T03:38:23.853Z,30.10
2019-03-28T03:40:54.730Z,33.50
2019-03-28T03:43:25.595Z,33.97
2019-03-28T03:45:56.199Z,30.87
2019-03-28T03:48:26.319Z,31.20
2019-03-28T03:50:56.579Z,29.03
2019-03-28T03:53:27.366Z,31.00
2019-03-28T03:56:01.194Z,30.93
2019-03-28T03:58:31.527Z,30.47
2019-03-28T04:01:07.558Z,34.53
2019-03-28T04:03:37.441Z,36.03
2019-03-28T04:06:07.896Z,33.50
2019-03-28T04:08:38.158Z,28.53
2019-03-28T04:11:08.472Z,31.27
2019-03-28T04:13:43.473Z,27.80
2019-03-28T04:16:15.745Z,27.33
2019-03-28T04:18:46.252Z,26.03
2019-03-28T04:21:17.066Z,35.83
2019-03-28T04:23:47.394Z,30.20
2019-03-28T04:26:24.198Z,30.87
2019-03-28T04:28:54.164Z,26.17
2019-03-28T04:31:24.724Z,28.67
2019-03-28T04:33:54.731Z,29.57
2019-03-28T04:36:26.727Z,30.92
2019-03-28T04:38:57.080Z,31.97
2019-03-28T04:41:27.534Z,28.13
2019-03-28T04:43:57.633Z,25.67
2019-03-28T04:46:28.015Z,30.90
2019-03-28T04:49:01.116Z,27.03
2019-03-28T04:51:31.398Z,24.47
2019-03-28T04:54:02.266Z,31.07
2019-03-28T04:56:32.469Z,25.63
2019-03-28T04:59:02.725Z,23.53
2019-03-28T05:01:37.104Z,25.20
2019-03-28T05:04:07.626Z,26.50
2019-03-28T05:06:38.245Z,29.67
2019-03-28T05:09:09.192Z,25.50
2019-03-28T05:11:39.406Z,26.87
2019-03-28T05:14:09.988Z,30.73
2019-03-28T05:16:40.303Z,32.90
2019-03-28T05:19:11.426Z,24.97
2019-03-28T05:21:42.049Z,26.47
2019-03-28T05:24:12.538Z,30.40
2019-03-28T05:26:42.678Z,23.23
2019-03-28T05:29:13.270Z,27.13
2019-03-28T05:31:43.230Z,27.50
2019-03-28T05:34:14.825Z,31.00
2019-03-28T05:36:45.277Z,33.87
2019-03-28T05:39:16.154Z,32.40
2019-03-28T05:41:46.336Z,29.93
2019-03-28T05:44:16.258Z,26.60
2019-03-28T05:46:46.501Z,27.53
2019-03-28T05:49:16.701Z,31.30
2019-03-28T05:51:47.580Z,25.83
2019-03-28T05:54:17.631Z,25.37
2019-03-28T05:56:47.775Z,26.93
2019-03-28T05:59:17.938Z,29.93
2019-03-28T06:01:48.805Z,31.43
2019-03-28T06:04:19.012Z,35.67
2019-03-28T06:06:49.353Z,36.10
2019-03-28T06:09:19.602Z,32.80
2019-03-28T06:11:52.796Z,30.10
2019-03-28T06:14:22.301Z,32.90
2019-03-28T06:16:52.521Z,36.87
2019-03-28T06:19:23.033Z,32.67
2019-03-28T06:21:53.528Z,29.93
2019-03-28T06:24:23.908Z,34.20
2019-03-28T06:26:54.178Z,36.20
2019-03-28T06:29:25.325Z,33.37
2019-03-28T06:31:56.723Z,34.50
2019-03-28T06:34:27.586Z,30.80
2019-03-28T06:36:57.667Z,35.57
2019-03-28T06:39:27.856Z,34.03
2019-03-28T06:41:59.610Z,33.07
2019-03-28T06:44:29.670Z,34.67
2019-03-28T06:47:00.709Z,44.77
2019-03-28T06:49:30.789Z,27.87
2019-03-28T06:52:00.950Z,30.93
2019-03-28T06:54:31.100Z,33.37
2019-03-28T06:57:01.484Z,32.10
2019-03-28T06:59:37.744Z,36.77
2019-03-28T07:02:05.841Z,31.50
2019-03-28T07:04:36.414Z,36.37
2019-03-28T07:07:06.694Z,30.37
2019-03-28T07:09:36.894Z,29.87
2019-03-28T07:12:07.199Z,34.23
2019-03-28T07:14:38.132Z,30.20
2019-03-28T07:17:08.204Z,36.67
2019-03-28T07:19:38.490Z,29.23
2019-03-28T07:22:09.132Z,33.47
2019-03-28T07:24:39.692Z,30.17
2019-03-28T07:27:10.440Z,27.97
2019-03-28T07:29:50.779Z,30.03
2019-03-28T07:32:12.859Z,29.60
2019-03-28T07:34:42.794Z,32.33
2019-03-28T07:37:12.807Z,30.23
2019-03-28T07:39:43.764Z,33.27
2019-03-28T07:42:14.102Z,28.40
2019-03-28T07:44:44.160Z,24.13
2019-03-28T07:47:14.864Z,32.03
2019-03-28T07:49:45.630Z,23.50
2019-03-28T07:52:20.116Z,24.87
2019-03-28T07:54:50.209Z,19.77
2019-03-28T07:57:20.499Z,27.77
2019-03-28T08:00:03.524Z,22.07
2019-03-28T08:02:25.845Z,22.60
2019-03-28T08:04:56.130Z,22.47
2019-03-28T08:07:26.086Z,23.10
2019-03-28T08:09:56.238Z,25.70
2019-03-28T08:12:26.561Z,32.20
2019-03-28T08:14:56.915Z,35.97
2019-03-28T08:17:26.797Z,25.83
2019-03-28T08:19:56.717Z,24.60
2019-03-28T08:22:29.618Z,40.00
2019-03-28T08:25:01.932Z,26.07
2019-03-28T08:27:32.743Z,24.77
2019-03-28T08:30:03.097Z,31.97
2019-03-28T08:32:35.563Z,26.90
2019-03-28T08:35:05.748Z,26.23
2019-03-28T08:37:36.090Z,25.67
2019-03-28T08:40:07.652Z,23.03
2019-03-28T08:42:38.041Z,21.67
2019-03-28T08:45:08.632Z,26.20
2019-03-28T08:47:39.967Z,27.90
2019-03-28T08:50:10.213Z,18.47
2019-03-28T08:52:42.549Z,22.17
2019-03-28T08:55:12.591Z,21.20
2019-03-28T08:57:42.999Z,20.20
2019-03-28T09:00:16.456Z,22.53
2019-03-28T09:02:45.694Z,18.40
2019-03-28T09:05:16.036Z,21.80
2019-03-28T09:07:46.330Z,27.10
2019-03-28T09:10:16.920Z,25.13
2019-03-28T09:12:47.491Z,23.57
2019-03-28T09:15:17.686Z,20.13
2019-03-28T09:17:47.767Z,25.57
2019-03-28T09:20:18.097Z,20.03
2019-03-28T09:22:49.159Z,20.73
2019-03-28T09:25:19.440Z,21.97
2019-03-28T09:27:51.688Z,18.47
2019-03-28T09:30:47.636Z,22.00
2019-03-28T09:33:06.578Z,17.47
2019-03-28T09:35:36.941Z,17.37
2019-03-28T09:38:07.196Z,18.93
2019-03-28T09:40:37.631Z,16.60
2019-03-28T09:43:08.272Z,19.50
2019-03-28T09:45:39.359Z,21.23
2019-03-28T09:48:11.683Z,18.83
2019-03-28T09:50:42.109Z,15.07
2019-03-28T09:53:12.578Z,19.00
2019-03-28T09:55:42.902Z,21.27
2019-03-28T09:58:13.285Z,22.50
2019-03-28T10:00:43.723Z,18.53
2019-03-28T10:03:14.816Z,18.27
2019-03-28T10:05:46.196Z,17.77
2019-03-28T10:08:16.436Z,23.57
2019-03-28T10:10:48.735Z,17.90
2019-03-28T10:13:18.639Z,21.80
2019-03-28T10:18:33.582Z,18.20
2019-03-28T10:21:03.884Z,29.63
2019-03-28T10:23:39.670Z,20.97
2019-03-28T10:26:08.877Z,22.37
2019-03-28T10:28:39.082Z,16.87
2019-03-28T10:31:16.282Z,15.50
2019-03-28T10:33:42.303Z,17.03
2019-03-28T10:36:12.585Z,25.10
2019-03-28T10:38:44.426Z,14.87
2019-03-28T10:41:15.214Z,15.57
2019-03-28T10:43:46.651Z,11.97
2019-03-28T10:46:17.041Z,11.27
2019-03-28T10:48:47.071Z,10.33
2019-03-28T10:51:18.647Z,18.43
2019-03-28T10:53:48.664Z,16.60
2019-03-28T10:56:22.426Z,9.23
2019-03-28T10:58:50.993Z,12.73
2019-03-28T11:01:35.986Z,9.87
2019-03-28T11:03:53.043Z,13.83
2019-03-28T11:06:25.192Z,11.60
2019-03-28T11:08:58.257Z,12.77
2019-03-28T11:11:28.887Z,14.83
2019-03-28T11:13:59.619Z,12.23
2019-03-28T11:16:30.031Z,7.00
2019-03-28T11:19:00.079Z,17.60
2019-03-28T11:21:34.103Z,8.27
2019-03-28T11:24:02.934Z,13.30
2019-03-28T11:26:33.037Z,12.87
2019-03-28T11:29:03.434Z,9.60
2019-03-28T11:31:46.087Z,11.67
2019-03-28T11:34:11.632Z,11.33
2019-03-28T11:36:41.609Z,11.50
2019-03-28T11:39:17.437Z,8.10
2019-03-28T11:41:48.329Z,7.47
2019-03-28T11:44:19.104Z,11.50
2019-03-28T11:46:49.412Z,9.13
2019-03-28T11:49:20.183Z,9.60
2019-03-28T11:51:53.310Z,20.40
2019-03-28T11:54:24.492Z,9.73
2019-03-28T11:56:56.878Z,10.73
2019-03-28T11:59:29.297Z,10.20
2019-03-28T12:02:13.615Z,7.93
2019-03-28T12:04:38.759Z,7.93
2019-03-28T12:07:09.714Z,9.87
2019-03-28T12:09:40.669Z,10.53
2019-03-28T12:12:12.547Z,10.17
2019-03-28T12:14:50.838Z,9.57
2019-03-28T12:17:22.593Z,8.87
2019-03-28T12:19:53.354Z,9.03
2019-03-28T12:22:39.424Z,11.97
2019-03-28T12:25:11.488Z,14.40
2019-03-28T12:27:52.867Z,12.00
2019-03-28T12:30:24.822Z,11.50
2019-03-28T12:32:54.949Z,9.90
2019-03-28T12:35:46.954Z,14.77
2019-03-28T12:38:17.355Z,10.67
2019-03-28T12:40:47.474Z,9.00
2019-03-28T12:43:17.557Z,9.73
2019-03-28T12:45:48.289Z,9.40
2019-03-28T12:48:18.306Z,13.17
2019-03-28T12:50:58.236Z,8.37
2019-03-28T12:53:20.216Z,10.60
2019-03-28T12:55:50.808Z,11.77
2019-03-28T12:58:21.130Z,13.03
2019-03-28T13:00:51.406Z,13.13
2019-03-28T13:03:21.708Z,11.90
2019-03-28T13:05:52.085Z,8.93
2019-03-28T13:08:21.933Z,9.13
2019-03-28T13:10:52.023Z,9.90
2019-03-28T13:13:23.878Z,14.80
2019-03-28T13:15:53.953Z,11.77
2019-03-28T13:18:25.663Z,14.57
2019-03-28T13:20:56.074Z,9.00
2019-03-28T13:23:26.167Z,7.97
2019-03-28T13:25:56.877Z,10.67
2019-03-28T13:28:28.527Z,9.87
2019-03-28T13:30:59.535Z,12.00
2019-03-28T13:33:29.598Z,14.47
2019-03-28T13:35:59.488Z,9.80
2019-03-28T13:38:30.006Z,10.87
2019-03-28T13:40:59.943Z,12.83
2019-03-28T13:43:30.605Z,12.10
2019-03-28T13:46:01.005Z,8.23
2019-03-28T13:48:31.803Z,7.27
2019-03-28T13:51:03.506Z,6.90
2019-03-28T13:53:39.702Z,7.30
2019-03-28T13:56:05.863Z,10.57
2019-03-28T13:58:39.463Z,10.73
2019-03-28T14:01:09.797Z,8.67
2019-03-28T14:03:39.767Z,8.10
2019-03-28T14:06:09.753Z,8.33
2019-03-28T14:08:40.529Z,4.93
2019-03-28T14:11:10.625Z,9.93
2019-03-28T14:13:41.845Z,8.20
2019-03-28T14:16:12.481Z,10.73
2019-03-28T14:18:43.326Z,7.80
2019-03-28T14:21:13.334Z,7.33
2019-03-28T14:23:44.622Z,9.13
2019-03-28T14:26:14.817Z,11.80
2019-03-28T14:28:44.830Z,8.73
2019-03-28T14:31:15.741Z,12.93
2019-03-28T14:33:48.379Z,13.07
2019-03-28T14:36:18.796Z,14.80
2019-03-28T14:38:49.571Z,13.23
2019-03-28T14:43:59.790Z,10.90
2019-03-28T14:46:37.194Z,9.60
2019-03-28T14:49:07.283Z,10.73
2019-03-28T14:51:37.795Z,10.87
2019-03-28T14:54:07.946Z,15.10
2019-03-28T14:56:39.271Z,15.23
2019-03-28T14:59:14.261Z,15.97
2019-03-28T15:01:46.888Z,14.80
2019-03-28T15:04:16.966Z,12.73
2019-03-28T15:06:46.999Z,12.70
2019-03-28T15:09:23.986Z,13.77
2019-03-28T15:11:49.982Z,10.83
2019-03-28T15:14:20.890Z,19.27
2019-03-28T15:16:51.781Z,12.20
2019-03-28T15:19:21.773Z,18.27
2019-03-28T15:21:51.937Z,11.30
2019-03-28T15:24:21.921Z,16.90
2019-03-28T15:26:52.289Z,10.40
2019-03-28T15:29:22.401Z,14.23
2019-03-28T15:31:54.319Z,15.73
2019-03-28T15:34:24.337Z,7.33
2019-03-28T15:36:55.592Z,10.87
2019-03-28T15:39:27.780Z,10.07
2019-03-28T15:41:58.710Z,12.60
2019-03-28T15:44:50.561Z,10.77
2019-03-28T15:47:26.170Z,13.23
2019-03-28T15:49:56.461Z,12.20
2019-03-28T15:52:27.732Z,9.60
2019-03-28T15:54:57.932Z,9.90
2019-03-28T15:57:30.468Z,9.27
2019-03-28T16:00:01.367Z,14.50
2019-03-28T16:02:31.834Z,8.43
2019-03-28T16:05:02.184Z,16.70
2019-03-28T16:07:33.392Z,13.60
2019-03-28T16:10:03.536Z,13.60
2019-03-28T16:12:36.799Z,9.10
2019-03-28T16:15:07.248Z,13.43
2019-03-28T16:17:37.834Z,13.33
2019-03-28T16:20:09.534Z,9.77
2019-03-28T16:22:40.054Z,11.67
2019-03-28T16:25:10.964Z,12.13
2019-03-28T16:27:41.779Z,11.50
2019-03-28T16:30:13.173Z,13.83
2019-03-28T16:32:44.090Z,11.00
2019-03-28T16:35:17.272Z,14.37
2019-03-28T16:37:51.004Z,16.53
2019-03-28T16:40:23.599Z,17.60
2019-03-28T16:42:57.773Z,14.80
2019-03-28T16:45:27.967Z,17.83
2019-03-28T16:47:58.251Z,18.50
2019-03-28T16:50:28.635Z,12.57
2019-03-28T16:52:59.222Z,10.73
2019-03-28T16:55:29.520Z,15.27
2019-03-28T16:57:59.438Z,15.10
2019-03-28T17:00:39.694Z,13.67
2019-03-28T17:03:09.730Z,15.00
2019-03-28T17:05:43.273Z,15.53
2019-03-28T17:08:14.518Z,15.30
2019-03-28T17:10:46.707Z,13.20
2019-03-28T17:13:26.931Z,18.67
2019-03-28T17:15:56.865Z,16.77
2019-03-28T17:18:26.795Z,10.70
2019-03-28T17:20:56.917Z,12.17
2019-03-28T17:23:30.295Z,13.00
2019-03-28T17:26:00.675Z,15.30
2019-03-28T17:28:32.999Z,16.77
2019-03-28T17:31:04.921Z,12.60
2019-03-28T17:33:35.111Z,19.30
2019-03-28T17:36:05.819Z,24.60
2019-03-28T17:38:36.067Z,18.93
2019-03-28T17:41:07.082Z,20.73
2019-03-28T17:43:37.236Z,26.43
2019-03-28T17:46:07.843Z,18.97
2019-03-28T17:48:40.555Z,21.27
2019-03-28T17:51:10.520Z,23.00
2019-03-28T17:53:40.618Z,23.60
2019-03-28T17:56:10.558Z,20.87
2019-03-28T17:58:43.062Z,17.77
2019-03-28T18:01:13.098Z,20.97
2019-03-28T18:03:43.357Z,20.47
2019-03-28T18:06:13.366Z,29.33
2019-03-28T18:08:46.087Z,23.10
2019-03-28T18:11:16.928Z,26.40
2019-03-28T18:13:47.610Z,21.33
2019-03-28T18:16:19.510Z,24.37
2019-03-28T18:18:49.453Z,22.67
2019-03-28T18:21:19.497Z,22.57
2019-03-28T18:23:49.797Z,28.20
2019-03-28T18:26:19.847Z,20.70
2019-03-28T18:28:49.711Z,26.43
2019-03-28T18:31:19.909Z,28.20
2019-03-28T18:33:50.181Z,27.13
2019-03-28T18:36:20.093Z,25.80
2019-03-28T18:38:52.526Z,29.63
2019-03-28T18:41:21.912Z,27.63
2019-03-28T18:43:51.844Z,22.70
2019-03-28T18:46:21.729Z,28.53
2019-03-28T18:48:52.691Z,27.00
2019-03-28T18:51:22.587Z,32.50
2019-03-28T18:53:52.461Z,25.67
2019-03-28T18:56:22.305Z,34.10
2019-03-28T18:58:52.405Z,29.40
2019-03-28T19:01:22.272Z,28.70
2019-03-28T19:03:52.333Z,29.20
2019-03-28T19:06:22.205Z,32.43
2019-03-28T19:08:53.155Z,31.60
2019-03-28T19:11:24.071Z,31.77
2019-03-28T19:13:54.057Z,34.57
2019-03-28T19:16:24.291Z,38.47
2019-03-28T19:18:54.290Z,29.77
2019-03-28T19:21:24.841Z,26.93
2019-03-28T19:23:55.037Z,30.93
2019-03-28T19:26:24.935Z,31.33
2019-03-28T19:28:56.220Z,30.50
2019-03-28T19:31:29.187Z,33.40
2019-03-28T19:33:59.027Z,33.58
2019-03-28T19:36:29.761Z,34.90
2019-03-28T19:38:59.821Z,30.33
2019-03-28T19:41:29.774Z,29.43
2019-03-28T19:44:00.044Z,29.93
2019-03-28T19:46:30.063Z,31.97
2019-03-28T19:49:00.412Z,34.30
2019-03-28T19:51:30.387Z,35.17
2019-03-28T19:54:00.515Z,33.67
2019-03-28T19:56:30.389Z,29.97
2019-03-28T19:59:00.313Z,26.97
2019-03-28T20:01:33.607Z,32.90
2019-03-28T20:04:03.670Z,30.33
2019-03-28T20:06:34.468Z,32.47
2019-03-28T20:09:15.719Z,35.70
2019-03-28T20:11:37.053Z,41.80
2019-03-28T20:14:07.083Z,31.87
2019-03-28T20:16:37.485Z,36.30
2019-03-28T20:19:10.275Z,31.97
2019-03-28T20:21:44.803Z,40.57
2019-03-28T20:24:15.019Z,38.47
2019-03-28T20:26:45.172Z,33.90
2019-03-28T20:29:15.692Z,39.93
2019-03-28T20:31:45.998Z,32.63
2019-03-28T20:34:15.875Z,36.13
2019-03-28T20:36:46.034Z,31.63
2019-03-28T20:39:16.344Z,36.23
2019-03-28T20:41:46.319Z,35.00
2019-03-28T20:44:16.171Z,35.00
2019-03-28T20:46:46.025Z,37.43
2019-03-28T20:49:16.031Z,33.30
2019-03-28T20:51:45.926Z,41.30
2019-03-28T20:54:16.541Z,39.03
2019-03-28T20:56:46.629Z,33.00
2019-03-28T20:59:16.431Z,39.53
2019-03-28T21:01:46.295Z,34.57
2019-03-28T21:04:16.187Z,38.00
2019-03-28T21:06:46.848Z,36.00
2019-03-28T21:09:16.873Z,35.40
2019-03-28T21:11:48.963Z,35.77
2019-03-28T21:14:18.548Z,41.43
2019-03-28T21:16:48.669Z,35.40
2019-03-28T21:19:19.043Z,40.77
2019-03-28T21:21:49.821Z,31.93
2019-03-28T21:24:19.846Z,35.47
2019-03-28T21:26:51.064Z,33.50
2019-03-28T21:29:28.527Z,34.07
2019-03-28T21:32:02.341Z,37.40
2019-03-28T21:34:32.307Z,40.37
2019-03-28T21:37:02.335Z,40.63
2019-03-28T21:39:32.639Z,48.10
2019-03-28T21:42:02.570Z,35.37
2019-03-28T21:44:32.944Z,39.23
2019-03-28T21:47:05.622Z,42.85
2019-03-28T21:49:35.839Z,37.70
2019-03-28T21:52:07.523Z,37.60
2019-03-28T21:54:37.355Z,33.80
2019-03-28T21:57:07.347Z,37.87
2019-03-28T21:59:37.281Z,37.53
2019-03-28T22:02:08.512Z,31.63
2019-03-28T22:04:39.133Z,38.20
2019-03-28T22:07:11.851Z,34.83
2019-03-28T22:09:41.719Z,37.53
2019-03-28T22:12:19.408Z,39.53
2019-03-28T22:14:49.720Z,38.37
2019-03-28T22:17:19.846Z,45.93
2019-03-28T22:19:49.747Z,34.53
2019-03-28T22:22:19.750Z,39.63
2019-03-28T22:24:49.825Z,39.07
2019-03-28T22:27:19.770Z,41.83
2019-03-28T22:29:49.755Z,35.10
2019-03-28T22:32:19.634Z,33.30
2019-03-28T22:34:49.515Z,36.10
2019-03-28T22:37:19.509Z,43.67
2019-03-28T22:39:49.696Z,43.98
2019-03-28T22:42:19.953Z,38.87
2019-03-28T22:44:51.065Z,39.43
2019-03-28T22:47:24.484Z,45.73
2019-03-28T22:49:54.418Z,35.60
2019-03-28T22:52:24.585Z,36.30
2019-03-28T22:54:55.481Z,36.40
2019-03-28T22:57:30.738Z,42.30
2019-03-28T23:00:22.453Z,35.00
2019-03-28T23:02:55.132Z,38.47
2019-03-28T23:05:27.356Z,35.60
2019-03-28T23:07:57.630Z,45.80
2019-03-28T23:10:27.904Z,38.57
2019-03-28T23:13:00.851Z,36.73
2019-03-28T23:15:31.433Z,41.80
2019-03-28T23:18:01.417Z,38.67
2019-03-28T23:20:33.721Z,34.00
2019-03-28T23:23:03.016Z,35.27
2019-03-28T23:25:32.915Z,40.47
2019-03-28T23:28:03.142Z,41.67
2019-03-28T23:30:33.080Z,41.03
2019-03-28T23:33:03.088Z,41.03
2019-03-28T23:35:33.388Z,40.17
2019-03-28T23:38:03.748Z,35.07
2019-03-28T23:40:35.018Z,32.90
2019-03-28T23:43:05.940Z,45.87
2019-03-28T23:45:36.326Z,41.90
2019-03-28T23:48:07.292Z,44.00
2019-03-28T23:50:37.367Z,38.40
2019-03-28T23:53:08.850Z,36.20
2019-03-28T23:55:40.206Z,39.70
2019-03-28T23:58:10.498Z,38.47
